Terminal Aerodrome Forecast
Issued by NWS

Home | Current Version | Previous Version | Text Only | Print | Product List | Glossary On
Versions: 1 2 3 4 5 6 7 8 9 10 11 12 13 14 15 16 17 18 19 20 21 22 23
000
FTUS44 KLZK 291740
TAFLLQ
TAF
KLLQ 291740Z 2918/3018 27010KT P6SM FEW019
     FM292200 23006KT P6SM VCTS FEW030 SCT050CB SCT100
     FM300200 24006KT P6SM FEW050 SCT100
     FM301200 VRB04KT P6SM SCT035 BKN050=

USA.gov is the U.S. government's official web portal to all federal, state and local government web resources and services.